createdAt,value
2023-03-01T00:01:48.684Z,4.30
2023-03-01T00:04:17.296Z,4.30
2023-03-01T00:06:47.565Z,4.30
2023-03-01T00:09:16.519Z,4.30
2023-03-01T00:11:46.497Z,4.30
2023-03-01T00:14:17.249Z,4.30
2023-03-01T00:16:47.324Z,4.30
2023-03-01T00:19:18.354Z,4.20
2023-03-01T00:21:48.404Z,4.20
2023-03-01T00:24:17.187Z,4.20
2023-03-01T00:26:45.777Z,4.20
2023-03-01T00:29:14.106Z,4.20
2023-03-01T00:31:42.424Z,4.20
2023-03-01T00:34:12.004Z,4.20
2023-03-01T00:36:40.873Z,4.20
2023-03-01T00:39:15.803Z,4.20
2023-03-01T00:41:44.384Z,4.20
2023-03-01T00:44:13.453Z,4.20
2023-03-01T00:46:41.801Z,4.10
2023-03-01T00:49:10.125Z,4.10
2023-03-01T00:51:38.547Z,4.40
2023-03-01T00:54:06.893Z,4.10
2023-03-01T00:56:36.676Z,4.10
2023-03-01T00:59:05.169Z,4.10
2023-03-01T01:01:34.002Z,4.10
2023-03-01T01:04:05.829Z,4.10
2023-03-01T01:06:37.304Z,4.10
2023-03-01T01:09:08.654Z,4.10
2023-03-01T01:11:38.489Z,4.00
2023-03-01T01:14:06.842Z,4.00
2023-03-01T01:16:35.719Z,4.00
2023-03-01T01:19:04.532Z,4.00
2023-03-01T01:21:33.555Z,4.10
2023-03-01T01:24:02.081Z,4.00
2023-03-01T01:26:33.462Z,4.00
2023-03-01T01:29:05.671Z,4.00
2023-03-01T01:31:35.015Z,4.00
2023-03-01T01:34:23.430Z,4.00
2023-03-01T01:36:54.906Z,3.90
2023-03-01T01:39:23.607Z,3.90
2023-03-01T01:41:52.251Z,3.90
2023-03-01T01:44:24.497Z,4.10
2023-03-01T01:46:58.038Z,3.90
2023-03-01T01:49:34.076Z,3.90
2023-03-01T01:52:13.959Z,3.90
2023-03-01T01:54:46.812Z,3.90
2023-03-01T01:57:21.338Z,4.00
2023-03-01T01:59:56.963Z,3.90
2023-03-01T02:02:26.008Z,3.90
2023-03-01T02:05:06.040Z,3.90
2023-03-01T02:07:35.425Z,4.00
2023-03-01T02:10:05.083Z,3.90
2023-03-01T02:12:34.459Z,3.90
2023-03-01T02:15:07.622Z,4.20
2023-03-01T02:17:36.951Z,3.90
2023-03-01T02:20:17.021Z,4.00
2023-03-01T02:22:47.569Z,4.00
2023-03-01T02:25:32.630Z,4.00
2023-03-01T02:28:13.131Z,4.00
2023-03-01T02:31:03.236Z,4.00
2023-03-01T02:33:33.849Z,4.00
2023-03-01T02:36:06.371Z,4.00
2023-03-01T02:38:35.346Z,4.00
2023-03-01T02:41:06.405Z,4.00
2023-03-01T02:43:36.374Z,4.00
2023-03-01T02:46:15.089Z,4.00
2023-03-01T02:48:46.253Z,4.00
2023-03-01T02:51:35.237Z,4.10
2023-03-01T02:54:17.536Z,4.00
2023-03-01T02:56:49.240Z,4.10
2023-03-01T02:59:23.333Z,4.10
2023-03-01T03:01:53.707Z,4.10
2023-03-01T03:04:22.906Z,4.10
2023-03-01T03:06:53.265Z,4.10
2023-03-01T03:09:21.870Z,4.10
2023-03-01T03:11:50.566Z,4.10
2023-03-01T03:14:19.643Z,4.10
2023-03-01T03:16:53.190Z,4.20
2023-03-01T03:19:22.278Z,4.10
2023-03-01T03:21:50.616Z,4.10
2023-03-01T03:24:19.437Z,4.10
2023-03-01T03:26:47.814Z,4.10
2023-03-01T03:29:16.188Z,4.10
2023-03-01T03:31:44.559Z,4.30
2023-03-01T03:34:19.069Z,4.20
2023-03-01T03:36:47.507Z,4.20
2023-03-01T03:39:15.885Z,4.30
2023-03-01T03:41:44.168Z,4.20
2023-03-01T03:44:12.510Z,4.20
2023-03-01T03:46:40.817Z,4.20
2023-03-01T03:49:09.230Z,4.40
2023-03-01T03:51:38.966Z,4.20
2023-03-01T03:54:07.329Z,4.20
2023-03-01T03:56:36.009Z,4.20
2023-03-01T03:59:04.333Z,4.20
2023-03-01T04:01:32.659Z,4.20
2023-03-01T04:04:05.114Z,4.20
2023-03-01T04:06:33.655Z,4.20
2023-03-01T04:09:04.082Z,4.20
2023-03-01T04:11:32.473Z,4.20
2023-03-01T04:14:01.257Z,4.20
2023-03-01T04:16:30.435Z,4.20
2023-03-01T04:19:00.725Z,4.20
2023-03-01T04:21:29.122Z,4.20
2023-03-01T04:23:57.785Z,4.20
2023-03-01T04:26:28.019Z,4.20
2023-03-01T04:28:57.091Z,4.20
2023-03-01T04:31:25.469Z,4.20
2023-03-01T04:33:56.450Z,4.20
2023-03-01T04:36:28.244Z,4.20
2023-03-01T04:38:58.187Z,4.30
2023-03-01T04:41:28.246Z,4.20
2023-03-01T04:43:56.653Z,4.20
2023-03-01T04:46:26.487Z,4.20
2023-03-01T04:48:55.069Z,4.20
2023-03-01T04:51:23.747Z,4.20
2023-03-01T04:53:52.189Z,4.20
2023-03-01T04:56:20.546Z,4.20
2023-03-01T04:58:50.394Z,4.20
2023-03-01T05:01:21.477Z,4.20
2023-03-01T05:03:52.340Z,4.20
2023-03-01T05:06:22.496Z,4.20
2023-03-01T05:08:51.258Z,4.30
2023-03-01T05:11:19.697Z,4.20
2023-03-01T05:13:50.978Z,4.20
2023-03-01T05:16:21.040Z,4.20
2023-03-01T05:18:51.465Z,4.20
2023-03-01T05:21:20.485Z,4.20
2023-03-01T05:23:48.951Z,4.30
2023-03-01T05:26:28.196Z,4.20
2023-03-01T05:29:00.261Z,4.40
2023-03-01T05:31:29.279Z,4.20
2023-03-01T05:33:57.733Z,4.20
2023-03-01T05:36:26.166Z,4.20
2023-03-01T05:38:54.557Z,4.20
2023-03-01T05:41:23.017Z,4.30
2023-03-01T05:43:51.366Z,4.20
2023-03-01T05:46:21.160Z,4.20
2023-03-01T05:48:49.667Z,4.20
2023-03-01T05:51:18.685Z,4.20
2023-03-01T05:53:47.217Z,4.20
2023-03-01T05:56:15.719Z,4.30
2023-03-01T05:58:44.270Z,4.40
2023-03-01T06:01:14.884Z,4.20
2023-03-01T06:03:44.951Z,4.20
2023-03-01T06:06:13.452Z,4.20
2023-03-01T06:08:41.858Z,4.20
2023-03-01T06:11:10.340Z,4.20
2023-03-01T06:13:38.720Z,4.30
2023-03-01T06:16:08.734Z,4.20
2023-03-01T06:18:37.160Z,4.20
2023-03-01T06:21:08.838Z,4.30
2023-03-01T06:23:37.763Z,4.20
2023-03-01T06:26:09.362Z,4.40
2023-03-01T06:28:38.079Z,4.20
2023-03-01T06:31:09.890Z,4.20
2023-03-01T06:33:38.560Z,4.20
2023-03-01T06:36:11.028Z,4.20
2023-03-01T06:38:41.705Z,4.20
2023-03-01T06:41:10.272Z,4.20
2023-03-01T06:43:38.668Z,4.20
2023-03-01T06:46:08.446Z,4.30
2023-03-01T06:48:37.234Z,4.20
2023-03-01T06:51:07.238Z,4.30
2023-03-01T06:53:35.579Z,4.30
2023-03-01T06:56:04.163Z,4.30
2023-03-01T06:58:32.597Z,4.30
2023-03-01T07:01:00.998Z,4.30
2023-03-01T07:03:29.389Z,4.30
2023-03-01T07:05:57.798Z,4.30
2023-03-01T07:08:27.528Z,4.30
2023-03-01T07:10:58.146Z,4.30
2023-03-01T07:13:26.740Z,4.40
2023-03-01T07:15:55.287Z,4.30
2023-03-01T07:18:23.657Z,4.40
2023-03-01T07:20:52.234Z,4.30
2023-03-01T07:23:20.586Z,4.30
2023-03-01T07:25:55.429Z,4.30
2023-03-01T07:28:26.000Z,4.30
2023-03-01T07:30:54.637Z,4.30
2023-03-01T07:33:23.560Z,4.30
2023-03-01T07:35:59.825Z,4.30
2023-03-01T07:38:28.634Z,4.30
2023-03-01T07:41:01.304Z,4.30
2023-03-01T07:43:29.964Z,4.50
2023-03-01T07:46:02.175Z,4.50
2023-03-01T07:48:31.325Z,4.50
2023-03-01T07:51:01.575Z,4.40
2023-03-01T07:53:31.866Z,4.40
2023-03-01T07:56:06.438Z,4.40
2023-03-01T07:58:36.992Z,4.50
2023-03-01T08:01:05.825Z,4.50
2023-03-01T08:03:34.323Z,4.50
2023-03-01T08:06:03.268Z,4.50
2023-03-01T08:08:32.327Z,4.60
2023-03-01T08:11:01.731Z,4.50
2023-03-01T08:13:32.451Z,4.60
2023-03-01T08:16:05.217Z,4.60
2023-03-01T08:18:33.822Z,4.60
2023-03-01T08:21:05.593Z,4.60
2023-03-01T08:23:33.958Z,4.60
2023-03-01T08:26:08.579Z,4.70
2023-03-01T08:28:38.676Z,4.70
2023-03-01T08:31:17.762Z,4.70
2023-03-01T08:33:51.479Z,4.70
2023-03-01T08:36:21.946Z,4.90
2023-03-01T08:38:50.471Z,4.80
2023-03-01T08:41:19.093Z,4.90
2023-03-01T08:43:48.988Z,4.90
2023-03-01T08:46:17.872Z,4.90
2023-03-01T08:48:46.243Z,5.00
2023-03-01T08:51:18.113Z,5.10
2023-03-01T08:53:47.219Z,5.00
2023-03-01T08:56:15.937Z,5.10
2023-03-01T08:58:48.589Z,5.10
2023-03-01T09:01:19.363Z,5.10
2023-03-01T09:03:48.818Z,5.20
2023-03-01T09:06:17.801Z,5.20
2023-03-01T09:08:49.937Z,5.30
2023-03-01T09:11:21.485Z,5.30
2023-03-01T09:13:54.824Z,5.30
2023-03-01T09:16:24.300Z,5.40
2023-03-01T09:18:54.313Z,5.60
2023-03-01T09:21:39.088Z,5.50
2023-03-01T09:24:10.205Z,5.50
2023-03-01T09:26:38.585Z,5.70
2023-03-01T09:29:10.609Z,5.60
2023-03-01T09:31:39.238Z,5.70
2023-03-01T09:34:07.899Z,5.70
2023-03-01T09:36:36.981Z,5.80
2023-03-01T09:39:06.889Z,6.00
2023-03-01T09:41:49.675Z,6.00
2023-03-01T09:44:36.516Z,6.10
2023-03-01T09:47:05.445Z,6.00
2023-03-01T09:49:36.858Z,6.10
2023-03-01T09:52:15.604Z,6.10
2023-03-01T09:54:43.989Z,6.10
2023-03-01T09:57:22.856Z,6.20
2023-03-01T10:00:12.696Z,6.30
2023-03-01T10:02:46.264Z,6.40
2023-03-01T10:05:37.145Z,6.30
2023-03-01T10:08:32.103Z,6.40
2023-03-01T10:11:01.316Z,6.40
2023-03-01T10:13:38.804Z,6.50
2023-03-01T10:16:16.261Z,6.60
2023-03-01T10:18:48.801Z,6.60
2023-03-01T10:21:20.215Z,6.70
2023-03-01T10:23:52.274Z,6.60
2023-03-01T10:26:42.345Z,6.70
2023-03-01T10:29:14.108Z,6.70
2023-03-01T10:31:47.352Z,6.70
2023-03-01T10:34:20.254Z,6.80
2023-03-01T10:36:52.582Z,6.80
2023-03-01T10:39:23.927Z,6.90
2023-03-01T10:42:02.032Z,6.90
2023-03-01T10:44:44.631Z,6.90
2023-03-01T10:47:27.310Z,7.00
2023-03-01T10:50:02.136Z,7.00
2023-03-01T10:52:35.366Z,7.00
2023-03-01T10:55:26.235Z,7.10
2023-03-01T10:58:11.657Z,7.10
2023-03-01T11:00:51.237Z,7.20
2023-03-01T11:03:25.094Z,7.20
2023-03-01T11:06:01.676Z,7.30
2023-03-01T11:08:40.801Z,7.40
2023-03-01T11:11:33.488Z,7.30
2023-03-01T11:14:19.352Z,7.40
2023-03-01T11:17:02.434Z,7.40
2023-03-01T11:19:32.467Z,7.50
2023-03-01T11:22:06.274Z,7.50
2023-03-01T11:24:43.671Z,7.60
2023-03-01T11:27:20.956Z,7.60
2023-03-01T11:29:55.233Z,7.60
2023-03-01T11:32:29.394Z,7.70
2023-03-01T11:35:04.912Z,7.70
2023-03-01T11:37:40.360Z,7.70
2023-03-01T11:40:18.584Z,7.80
2023-03-01T11:42:57.186Z,7.80
2023-03-01T11:45:27.346Z,7.90
2023-03-01T11:48:14.669Z,7.90
2023-03-01T11:50:49.465Z,7.90
2023-03-01T11:53:49.483Z,8.00
2023-03-01T11:56:28.449Z,8.00
2023-03-01T11:59:32.203Z,8.10
2023-03-01T12:02:33.017Z,8.10
2023-03-01T12:05:47.483Z,8.20
2023-03-01T12:08:24.420Z,8.20
2023-03-01T12:11:05.092Z,8.20
2023-03-01T12:14:01.149Z,8.30
2023-03-01T12:16:46.844Z,8.30
2023-03-01T12:19:43.401Z,8.30
2023-03-01T12:22:34.749Z,8.50
2023-03-01T12:25:31.958Z,8.40
2023-03-01T12:28:53.811Z,8.40
2023-03-01T12:31:57.984Z,8.60
2023-03-01T12:34:57.248Z,8.50
2023-03-01T12:37:38.970Z,8.50
2023-03-01T12:40:48.839Z,8.60
2023-03-01T12:43:30.952Z,8.60
2023-03-01T12:46:36.121Z,8.70
2023-03-01T12:49:12.185Z,8.70
2023-03-01T12:51:42.204Z,8.70
2023-03-01T12:54:18.911Z,8.80
2023-03-01T12:56:53.138Z,8.80
2023-03-01T12:59:30.664Z,8.90
2023-03-01T13:02:07.963Z,8.90
2023-03-01T13:04:56.384Z,8.90
2023-03-01T13:07:33.205Z,8.90
2023-03-01T13:10:19.486Z,8.90
2023-03-01T13:13:05.117Z,9.00
2023-03-01T13:15:37.489Z,9.00
2023-03-01T13:18:31.241Z,9.00
2023-03-01T13:21:02.317Z,9.10
2023-03-01T13:23:35.144Z,9.10
2023-03-01T13:26:21.420Z,9.10
2023-03-01T13:28:58.108Z,9.20
2023-03-01T13:32:01.189Z,9.20
2023-03-01T13:34:48.074Z,9.40
2023-03-01T13:37:30.502Z,9.30
2023-03-01T13:40:52.869Z,9.30
2023-03-01T13:43:33.842Z,9.40
2023-03-01T13:46:12.156Z,9.40
2023-03-01T13:48:41.589Z,9.60
2023-03-01T13:51:12.214Z,9.50
2023-03-01T13:53:45.411Z,9.60
2023-03-01T13:56:18.117Z,9.60
2023-03-01T13:58:51.980Z,9.50
2023-03-01T14:01:28.884Z,9.70
2023-03-01T14:03:58.366Z,9.60
2023-03-01T14:06:31.296Z,9.60
2023-03-01T14:09:07.679Z,9.80
2023-03-01T14:12:18.124Z,9.70
2023-03-01T14:14:54.711Z,9.70
2023-03-01T14:17:49.837Z,9.80
2023-03-01T14:20:22.518Z,9.80
2023-03-01T14:22:54.890Z,9.80
2023-03-01T14:25:27.666Z,9.80
2023-03-01T14:28:06.868Z,9.90
2023-03-01T14:30:39.857Z,9.80
2023-03-01T14:33:24.253Z,9.90
2023-03-01T14:36:01.273Z,9.90
2023-03-01T14:38:36.766Z,9.90
2023-03-01T14:41:10.035Z,10.10
2023-03-01T14:43:40.211Z,9.90
2023-03-01T14:46:08.629Z,10.00
2023-03-01T14:48:38.381Z,10.10
2023-03-01T14:51:08.350Z,10.00
2023-03-01T14:53:49.265Z,10.00
2023-03-01T14:56:22.051Z,10.00
2023-03-01T14:58:54.694Z,10.00
2023-03-01T15:01:24.244Z,10.00
2023-03-01T15:03:54.583Z,10.10
2023-03-01T15:06:25.431Z,10.10
2023-03-01T15:08:57.873Z,10.10
2023-03-01T15:11:30.042Z,10.10
2023-03-01T15:13:59.820Z,10.10
2023-03-01T15:16:32.060Z,10.10
2023-03-01T15:19:04.297Z,10.10
2023-03-01T15:21:35.716Z,10.10
2023-03-01T15:24:21.368Z,10.10
2023-03-01T15:26:56.275Z,10.10
2023-03-01T15:29:31.105Z,10.20
2023-03-01T15:32:04.954Z,10.20
2023-03-01T15:34:39.145Z,10.20
2023-03-01T15:37:40.233Z,10.20
2023-03-01T15:40:25.277Z,10.20
2023-03-01T15:42:54.735Z,10.20
2023-03-01T15:45:28.209Z,10.20
2023-03-01T15:47:59.437Z,10.20
2023-03-01T15:50:33.982Z,10.20
2023-03-01T15:53:03.992Z,10.20
2023-03-01T15:55:34.389Z,10.20
2023-03-01T15:58:05.985Z,10.20
2023-03-01T16:00:34.552Z,10.40
2023-03-01T16:03:02.995Z,10.20
2023-03-01T16:05:35.697Z,10.40
2023-03-01T16:08:06.702Z,10.20
2023-03-01T16:10:36.250Z,10.20
2023-03-01T16:13:04.762Z,10.20
2023-03-01T16:15:36.217Z,10.30
2023-03-01T16:18:06.127Z,10.20
2023-03-01T16:20:36.662Z,10.20
2023-03-01T16:23:07.819Z,10.20
2023-03-01T16:25:37.378Z,10.50
2023-03-01T16:28:10.028Z,10.20
2023-03-01T16:30:40.470Z,10.20
2023-03-01T16:33:28.335Z,10.20
2023-03-01T16:36:01.094Z,10.20
2023-03-01T16:38:29.989Z,10.10
2023-03-01T16:40:58.314Z,10.10
2023-03-01T16:43:26.941Z,10.10
2023-03-01T16:45:55.382Z,10.20
2023-03-01T16:48:23.792Z,10.30
2023-03-01T16:51:01.681Z,10.00
2023-03-01T16:53:30.662Z,10.00
2023-03-01T16:56:00.125Z,10.00
2023-03-01T16:58:28.603Z,10.10
2023-03-01T17:00:58.343Z,9.90
2023-03-01T17:03:30.019Z,9.90
2023-03-01T17:06:03.628Z,10.10
2023-03-01T17:08:32.203Z,9.80
2023-03-01T17:11:07.097Z,9.90
2023-03-01T17:13:38.159Z,9.80
2023-03-01T17:16:08.638Z,9.70
2023-03-01T17:18:38.313Z,9.70
2023-03-01T17:21:12.266Z,9.90
2023-03-01T17:23:45.486Z,9.70
2023-03-01T17:26:14.700Z,9.60
2023-03-01T17:28:43.857Z,9.60
2023-03-01T17:31:12.700Z,9.80
2023-03-01T17:33:41.250Z,9.80
2023-03-01T17:36:11.125Z,9.50
2023-03-01T17:38:39.636Z,9.40
2023-03-01T17:41:08.002Z,9.60
2023-03-01T17:43:36.428Z,9.40
2023-03-01T17:46:08.096Z,9.50
2023-03-01T17:48:36.491Z,9.20
2023-03-01T17:51:08.698Z,9.40
2023-03-01T17:53:39.068Z,9.10
2023-03-01T17:56:08.904Z,9.40
2023-03-01T17:58:38.592Z,9.00
2023-03-01T18:01:13.899Z,9.00
2023-03-01T18:03:47.800Z,9.20
2023-03-01T18:06:19.680Z,8.90
2023-03-01T18:08:50.946Z,9.20
2023-03-01T18:11:20.577Z,8.80
2023-03-01T18:13:53.206Z,8.80
2023-03-01T18:16:24.147Z,8.70
2023-03-01T18:18:56.189Z,8.70
2023-03-01T18:21:24.884Z,8.60
2023-03-01T18:23:55.422Z,8.60
2023-03-01T18:26:25.334Z,8.50
2023-03-01T18:28:54.649Z,8.50
2023-03-01T18:31:23.928Z,8.50
2023-03-01T18:33:55.863Z,8.70
2023-03-01T18:36:28.192Z,8.40
2023-03-01T18:38:58.222Z,8.30
2023-03-01T18:41:28.350Z,8.30
2023-03-01T18:43:57.589Z,8.30
2023-03-01T18:46:26.465Z,8.60
2023-03-01T18:48:55.379Z,8.50
2023-03-01T18:51:26.753Z,8.40
2023-03-01T18:53:58.618Z,8.40
2023-03-01T18:56:27.205Z,8.30
2023-03-01T18:58:56.141Z,8.40
2023-03-01T19:01:26.775Z,8.30
2023-03-01T19:03:56.396Z,8.30
2023-03-01T19:06:30.133Z,7.90
2023-03-01T19:09:00.464Z,8.10
2023-03-01T19:11:31.088Z,7.90
2023-03-01T19:14:01.490Z,8.10
2023-03-01T19:16:32.401Z,8.00
2023-03-01T19:19:03.126Z,8.00
2023-03-01T19:21:33.615Z,7.70
2023-03-01T19:24:04.526Z,7.70
2023-03-01T19:26:34.136Z,7.60
2023-03-01T19:29:04.973Z,7.90
2023-03-01T19:31:33.523Z,7.60
2023-03-01T19:34:11.064Z,7.80
2023-03-01T19:36:41.781Z,7.50
2023-03-01T19:39:14.209Z,7.50
2023-03-01T19:41:43.125Z,7.40
2023-03-01T19:44:12.346Z,7.40
2023-03-01T19:46:41.316Z,7.40
2023-03-01T19:49:10.004Z,7.30
2023-03-01T19:51:39.383Z,7.50
2023-03-01T19:54:09.855Z,7.60
2023-03-01T19:56:40.387Z,7.30
2023-03-01T19:59:09.153Z,7.20
2023-03-01T20:01:38.182Z,7.20
2023-03-01T20:04:06.916Z,7.20
2023-03-01T20:06:35.577Z,7.50
2023-03-01T20:09:15.630Z,7.10
2023-03-01T20:11:50.973Z,7.10
2023-03-01T20:14:21.108Z,7.10
2023-03-01T20:16:51.603Z,7.40
2023-03-01T20:19:20.031Z,7.00
2023-03-01T20:21:48.352Z,7.20
2023-03-01T20:24:16.668Z,7.00
2023-03-01T20:26:45.009Z,6.90
2023-03-01T20:29:14.783Z,7.20
2023-03-01T20:31:43.195Z,7.10
2023-03-01T20:34:11.577Z,7.10
2023-03-01T20:36:41.124Z,6.80
2023-03-01T20:39:11.770Z,7.00
2023-03-01T20:41:40.820Z,7.00
2023-03-01T20:44:09.945Z,6.80
2023-03-01T20:46:39.868Z,6.80
2023-03-01T20:49:08.504Z,7.00
2023-03-01T20:51:36.853Z,6.80
2023-03-01T20:54:07.186Z,6.70
2023-03-01T20:56:38.190Z,6.70
2023-03-01T20:59:15.980Z,6.70
2023-03-01T21:01:45.731Z,6.70
2023-03-01T21:04:14.293Z,7.00
2023-03-01T21:06:42.959Z,6.80
2023-03-01T21:09:13.873Z,7.00
2023-03-01T21:11:42.265Z,6.90
2023-03-01T21:14:12.512Z,6.70
2023-03-01T21:16:40.867Z,7.00
2023-03-01T21:19:11.033Z,6.70
2023-03-01T21:21:39.451Z,6.70
2023-03-01T21:24:10.232Z,6.70
2023-03-01T21:26:39.254Z,6.70
2023-03-01T21:29:07.556Z,6.70
2023-03-01T21:31:39.867Z,6.70
2023-03-01T21:34:08.433Z,6.70
2023-03-01T21:36:41.248Z,6.80
2023-03-01T21:39:09.617Z,6.80
2023-03-01T21:41:39.248Z,6.40
2023-03-01T21:44:08.889Z,6.70
2023-03-01T21:46:40.441Z,6.80
2023-03-01T21:49:12.540Z,6.80
2023-03-01T21:51:45.149Z,6.80
2023-03-01T21:54:15.639Z,6.80
2023-03-01T21:56:45.244Z,6.80
2023-03-01T21:59:16.383Z,7.10
2023-03-01T22:01:48.440Z,6.80
2023-03-01T22:04:18.083Z,6.80
2023-03-01T22:06:48.648Z,7.10
2023-03-01T22:09:20.830Z,6.80
2023-03-01T22:11:58.470Z,6.80
2023-03-01T22:14:27.524Z,6.80
2023-03-01T22:16:58.929Z,6.80
2023-03-01T22:19:28.630Z,6.80
2023-03-01T22:21:58.397Z,7.10
2023-03-01T22:24:27.394Z,6.80
2023-03-01T22:26:56.354Z,6.80
2023-03-01T22:29:29.593Z,6.80
2023-03-01T22:31:59.539Z,6.80
2023-03-01T22:34:28.234Z,6.80
2023-03-01T22:36:58.679Z,6.80
2023-03-01T22:39:26.983Z,6.80
2023-03-01T22:41:55.810Z,6.80
2023-03-01T22:44:25.186Z,6.80
2023-03-01T22:46:54.092Z,6.90
2023-03-01T22:49:22.777Z,6.80
2023-03-01T22:51:52.795Z,6.80
2023-03-01T22:54:22.743Z,7.10
2023-03-01T22:56:51.586Z,6.70
2023-03-01T22:59:23.654Z,6.70
2023-03-01T23:01:53.238Z,6.80
2023-03-01T23:04:23.109Z,6.70
2023-03-01T23:06:51.935Z,6.70
2023-03-01T23:09:24.767Z,6.90
2023-03-01T23:11:54.612Z,6.70
2023-03-01T23:14:22.985Z,6.70
2023-03-01T23:16:52.698Z,6.70
2023-03-01T23:19:21.380Z,6.70
2023-03-01T23:21:50.574Z,6.60
2023-03-01T23:24:23.038Z,6.90
2023-03-01T23:26:53.415Z,6.60
2023-03-01T23:29:22.658Z,6.60
2023-03-01T23:31:51.036Z,6.60
2023-03-01T23:34:20.025Z,6.60
2023-03-01T23:36:48.425Z,6.60
2023-03-01T23:39:17.051Z,6.60
2023-03-01T23:41:47.052Z,6.60
2023-03-01T23:44:18.157Z,6.60
2023-03-01T23:46:48.496Z,6.60
2023-03-01T23:49:19.897Z,6.50
2023-03-01T23:51:48.921Z,6.50
2023-03-01T23:54:21.898Z,6.60
2023-03-01T23:56:51.681Z,6.80
2023-03-01T23:59:22.865Z,6.60
